sensor_id;sensor_type;location;lat;lon;timestamp;P1;durP1;ratioP1;P2;durP2;ratioP2
2099;SDS011;1055;48.854;9.302;2022-10-22T00:01:31;5.30;;;1.07;;
2099;SDS011;1055;48.854;9.302;2022-10-22T00:03:57;5.00;;;1.30;;
2099;SDS011;1055;48.854;9.302;2022-10-22T00:06:23;5.80;;;0.97;;
2099;SDS011;1055;48.854;9.302;2022-10-22T00:08:49;5.00;;;0.97;;
2099;SDS011;1055;48.854;9.302;2022-10-22T00:11:15;6.90;;;1.40;;
2099;SDS011;1055;48.854;9.302;2022-10-22T00:13:43;5.20;;;1.00;;
2099;SDS011;1055;48.854;9.302;2022-10-22T00:16:09;5.07;;;1.10;;
2099;SDS011;1055;48.854;9.302;2022-10-22T00:18:34;5.30;;;1.40;;
2099;SDS011;1055;48.854;9.302;2022-10-22T00:21:01;5.53;;;1.53;;
2099;SDS011;1055;48.854;9.302;2022-10-22T00:23:27;7.20;;;1.80;;
2099;SDS011;1055;48.854;9.302;2022-10-22T00:25:53;5.53;;;1.50;;
2099;SDS011;1055;48.854;9.302;2022-10-22T00:28:19;6.97;;;1.70;;
2099;SDS011;1055;48.854;9.302;2022-10-22T00:30:44;7.87;;;2.20;;
2099;SDS011;1055;48.854;9.302;2022-10-22T00:33:10;9.50;;;2.67;;
2099;SDS011;1055;48.854;9.302;2022-10-22T00:35:36;6.30;;;1.30;;
2099;SDS011;1055;48.854;9.302;2022-10-22T00:38:02;4.90;;;1.30;;
2099;SDS011;1055;48.854;9.302;2022-10-22T00:40:28;5.27;;;1.40;;
2099;SDS011;1055;48.854;9.302;2022-10-22T00:42:53;6.07;;;1.40;;
2099;SDS011;1055;48.854;9.302;2022-10-22T00:45:21;4.80;;;1.00;;
2099;SDS011;1055;48.854;9.302;2022-10-22T00:53:14;4.67;;;1.07;;
2099;SDS011;1055;48.854;9.302;2022-10-22T00:55:43;4.70;;;1.10;;
2099;SDS011;1055;48.854;9.302;2022-10-22T00:58:12;5.10;;;1.10;;
2099;SDS011;1055;48.854;9.302;2022-10-22T01:00:38;4.80;;;1.00;;
2099;SDS011;1055;48.854;9.302;2022-10-22T01:03:04;5.63;;;1.27;;
2099;SDS011;1055;48.854;9.302;2022-10-22T01:05:30;6.33;;;1.30;;
2099;SDS011;1055;48.854;9.302;2022-10-22T01:08:03;4.63;;;1.10;;
2099;SDS011;1055;48.854;9.302;2022-10-22T01:11:14;6.50;;;1.10;;
2099;SDS011;1055;48.854;9.302;2022-10-22T01:13:32;6.97;;;1.20;;
2099;SDS011;1055;48.854;9.302;2022-10-22T01:16:18;4.90;;;1.20;;
2099;SDS011;1055;48.854;9.302;2022-10-22T01:22:08;5.63;;;1.40;;
2099;SDS011;1055;48.854;9.302;2022-10-22T01:27:57;5.00;;;0.90;;
2099;SDS011;1055;48.854;9.302;2022-10-22T01:30:33;4.90;;;1.00;;
2099;SDS011;1055;48.854;9.302;2022-10-22T01:33:02;5.73;;;1.10;;
2099;SDS011;1055;48.854;9.302;2022-10-22T01:35:32;7.13;;;1.20;;
2099;SDS011;1055;48.854;9.302;2022-10-22T01:38:02;4.60;;;1.00;;
2099;SDS011;1055;48.854;9.302;2022-10-22T01:40:31;5.07;;;1.00;;
2099;SDS011;1055;48.854;9.302;2022-10-22T01:42:58;6.60;;;1.00;;
2099;SDS011;1055;48.854;9.302;2022-10-22T01:45:36;5.30;;;0.93;;
2099;SDS011;1055;48.854;9.302;2022-10-22T01:53:44;6.03;;;1.10;;
2099;SDS011;1055;48.854;9.302;2022-10-22T02:04:35;4.80;;;1.10;;
2099;SDS011;1055;48.854;9.302;2022-10-22T02:07:05;5.37;;;1.13;;
2099;SDS011;1055;48.854;9.302;2022-10-22T02:09:34;4.67;;;1.10;;
2099;SDS011;1055;48.854;9.302;2022-10-22T02:12:02;4.83;;;1.27;;
2099;SDS011;1055;48.854;9.302;2022-10-22T02:14:30;4.70;;;1.20;;
2099;SDS011;1055;48.854;9.302;2022-10-22T02:16:58;5.17;;;1.30;;
2099;SDS011;1055;48.854;9.302;2022-10-22T02:19:26;5.40;;;1.13;;
2099;SDS011;1055;48.854;9.302;2022-10-22T02:21:54;5.40;;;1.30;;
2099;SDS011;1055;48.854;9.302;2022-10-22T02:24:20;6.43;;;1.40;;
2099;SDS011;1055;48.854;9.302;2022-10-22T02:29:23;7.90;;;1.30;;
2099;SDS011;1055;48.854;9.302;2022-10-22T02:31:50;5.23;;;1.10;;
2099;SDS011;1055;48.854;9.302;2022-10-22T02:34:20;4.70;;;1.10;;
2099;SDS011;1055;48.854;9.302;2022-10-22T02:36:50;5.20;;;1.30;;
2099;SDS011;1055;48.854;9.302;2022-10-22T02:39:16;4.80;;;1.13;;
2099;SDS011;1055;48.854;9.302;2022-10-22T02:41:44;4.70;;;1.10;;
2099;SDS011;1055;48.854;9.302;2022-10-22T02:44:10;5.77;;;1.00;;
2099;SDS011;1055;48.854;9.302;2022-10-22T02:46:36;5.10;;;1.60;;
2099;SDS011;1055;48.854;9.302;2022-10-22T02:49:03;4.80;;;1.37;;
2099;SDS011;1055;48.854;9.302;2022-10-22T02:51:29;5.67;;;1.33;;
2099;SDS011;1055;48.854;9.302;2022-10-22T02:53:54;5.97;;;1.30;;
2099;SDS011;1055;48.854;9.302;2022-10-22T02:56:20;4.57;;;1.20;;
2099;SDS011;1055;48.854;9.302;2022-10-22T02:58:46;6.07;;;1.10;;
2099;SDS011;1055;48.854;9.302;2022-10-22T03:01:11;5.33;;;1.43;;
2099;SDS011;1055;48.854;9.302;2022-10-22T03:03:37;5.33;;;1.00;;
2099;SDS011;1055;48.854;9.302;2022-10-22T03:06:03;4.70;;;1.10;;
2099;SDS011;1055;48.854;9.302;2022-10-22T03:08:28;4.90;;;1.20;;
2099;SDS011;1055;48.854;9.302;2022-10-22T03:10:54;5.10;;;1.20;;
2099;SDS011;1055;48.854;9.302;2022-10-22T03:13:20;7.37;;;1.37;;
2099;SDS011;1055;48.854;9.302;2022-10-22T03:15:47;5.13;;;1.07;;
2099;SDS011;1055;48.854;9.302;2022-10-22T03:18:14;5.00;;;1.20;;
2099;SDS011;1055;48.854;9.302;2022-10-22T03:20:40;7.10;;;1.57;;
2099;SDS011;1055;48.854;9.302;2022-10-22T03:23:05;5.73;;;1.30;;
2099;SDS011;1055;48.854;9.302;2022-10-22T03:25:31;5.93;;;1.03;;
2099;SDS011;1055;48.854;9.302;2022-10-22T03:27:59;5.93;;;1.17;;
2099;SDS011;1055;48.854;9.302;2022-10-22T03:30:29;6.67;;;1.30;;
2099;SDS011;1055;48.854;9.302;2022-10-22T03:32:55;4.90;;;1.10;;
2099;SDS011;1055;48.854;9.302;2022-10-22T03:35:20;4.67;;;1.10;;
2099;SDS011;1055;48.854;9.302;2022-10-22T03:37:46;6.90;;;1.40;;
2099;SDS011;1055;48.854;9.302;2022-10-22T03:40:12;5.30;;;1.33;;
2099;SDS011;1055;48.854;9.302;2022-10-22T03:42:39;5.20;;;1.20;;
2099;SDS011;1055;48.854;9.302;2022-10-22T03:45:05;4.60;;;0.90;;
2099;SDS011;1055;48.854;9.302;2022-10-22T03:47:32;6.10;;;1.30;;
2099;SDS011;1055;48.854;9.302;2022-10-22T03:49:58;4.40;;;0.83;;
2099;SDS011;1055;48.854;9.302;2022-10-22T03:52:24;4.77;;;1.00;;
2099;SDS011;1055;48.854;9.302;2022-10-22T03:54:49;5.37;;;1.00;;
2099;SDS011;1055;48.854;9.302;2022-10-22T03:57:15;7.20;;;1.40;;
2099;SDS011;1055;48.854;9.302;2022-10-22T03:59:41;7.27;;;1.10;;
2099;SDS011;1055;48.854;9.302;2022-10-22T04:02:09;5.40;;;1.20;;
2099;SDS011;1055;48.854;9.302;2022-10-22T04:04:35;6.23;;;1.60;;
2099;SDS011;1055;48.854;9.302;2022-10-22T04:07:02;4.87;;;1.20;;
2099;SDS011;1055;48.854;9.302;2022-10-22T04:09:32;5.53;;;1.67;;
2099;SDS011;1055;48.854;9.302;2022-10-22T04:12:01;4.77;;;1.20;;
2099;SDS011;1055;48.854;9.302;2022-10-22T04:14:32;4.43;;;1.00;;
2099;SDS011;1055;48.854;9.302;2022-10-22T04:17:03;6.33;;;1.40;;
2099;SDS011;1055;48.854;9.302;2022-10-22T04:19:31;6.67;;;1.30;;
2099;SDS011;1055;48.854;9.302;2022-10-22T04:22:00;5.73;;;0.97;;
2099;SDS011;1055;48.854;9.302;2022-10-22T04:24:29;5.80;;;1.20;;
2099;SDS011;1055;48.854;9.302;2022-10-22T04:26:58;5.90;;;1.20;;
2099;SDS011;1055;48.854;9.302;2022-10-22T04:29:30;4.73;;;0.90;;
2099;SDS011;1055;48.854;9.302;2022-10-22T04:31:58;4.70;;;1.07;;
2099;SDS011;1055;48.854;9.302;2022-10-22T04:34:25;7.07;;;1.10;;
2099;SDS011;1055;48.854;9.302;2022-10-22T04:36:52;5.00;;;1.07;;
2099;SDS011;1055;48.854;9.302;2022-10-22T04:39:18;5.80;;;1.20;;
2099;SDS011;1055;48.854;9.302;2022-10-22T04:41:43;5.50;;;1.30;;
2099;SDS011;1055;48.854;9.302;2022-10-22T04:44:09;6.03;;;1.10;;
2099;SDS011;1055;48.854;9.302;2022-10-22T04:46:35;6.43;;;1.23;;
2099;SDS011;1055;48.854;9.302;2022-10-22T04:49:01;5.50;;;1.40;;
2099;SDS011;1055;48.854;9.302;2022-10-22T04:51:28;5.93;;;1.27;;
2099;SDS011;1055;48.854;9.302;2022-10-22T04:53:53;4.70;;;1.13;;
2099;SDS011;1055;48.854;9.302;2022-10-22T04:56:21;4.87;;;1.17;;
2099;SDS011;1055;48.854;9.302;2022-10-22T04:58:53;6.63;;;1.30;;
2099;SDS011;1055;48.854;9.302;2022-10-22T05:01:25;6.40;;;1.13;;
2099;SDS011;1055;48.854;9.302;2022-10-22T05:03:53;4.83;;;1.33;;
2099;SDS011;1055;48.854;9.302;2022-10-22T05:06:21;5.13;;;1.03;;
2099;SDS011;1055;48.854;9.302;2022-10-22T05:08:47;5.33;;;1.20;;
2099;SDS011;1055;48.854;9.302;2022-10-22T05:11:17;4.83;;;1.20;;
2099;SDS011;1055;48.854;9.302;2022-10-22T05:13:45;5.00;;;1.30;;
2099;SDS011;1055;48.854;9.302;2022-10-22T05:16:11;6.43;;;1.30;;
2099;SDS011;1055;48.854;9.302;2022-10-22T05:18:37;4.50;;;1.20;;
2099;SDS011;1055;48.854;9.302;2022-10-22T05:21:08;4.87;;;0.90;;
2099;SDS011;1055;48.854;9.302;2022-10-22T05:23:36;6.63;;;1.00;;
2099;SDS011;1055;48.854;9.302;2022-10-22T05:26:02;4.40;;;0.87;;
2099;SDS011;1055;48.854;9.302;2022-10-22T05:28:29;6.00;;;1.20;;
2099;SDS011;1055;48.854;9.302;2022-10-22T05:30:56;7.73;;;1.20;;
2099;SDS011;1055;48.854;9.302;2022-10-22T05:33:23;5.00;;;1.20;;
2099;SDS011;1055;48.854;9.302;2022-10-22T05:35:49;6.80;;;1.30;;
2099;SDS011;1055;48.854;9.302;2022-10-22T05:38:16;4.83;;;1.00;;
2099;SDS011;1055;48.854;9.302;2022-10-22T05:40:42;6.90;;;1.10;;
2099;SDS011;1055;48.854;9.302;2022-10-22T05:43:08;6.30;;;1.30;;
2099;SDS011;1055;48.854;9.302;2022-10-22T05:45:35;6.60;;;1.30;;
2099;SDS011;1055;48.854;9.302;2022-10-22T05:48:02;5.43;;;1.10;;
2099;SDS011;1055;48.854;9.302;2022-10-22T05:50:28;7.83;;;1.40;;
2099;SDS011;1055;48.854;9.302;2022-10-22T05:52:53;7.20;;;1.30;;
2099;SDS011;1055;48.854;9.302;2022-10-22T05:55:19;6.70;;;1.30;;
2099;SDS011;1055;48.854;9.302;2022-10-22T05:57:45;4.70;;;1.23;;
2099;SDS011;1055;48.854;9.302;2022-10-22T06:00:10;7.93;;;1.23;;
2099;SDS011;1055;48.854;9.302;2022-10-22T06:02:36;7.60;;;1.33;;
2099;SDS011;1055;48.854;9.302;2022-10-22T06:05:02;7.77;;;1.73;;
2099;SDS011;1055;48.854;9.302;2022-10-22T06:07:28;11.03;;;1.73;;
2099;SDS011;1055;48.854;9.302;2022-10-22T06:09:54;9.70;;;1.73;;
2099;SDS011;1055;48.854;9.302;2022-10-22T06:12:19;5.93;;;2.13;;
2099;SDS011;1055;48.854;9.302;2022-10-22T06:14:45;7.80;;;1.70;;
2099;SDS011;1055;48.854;9.302;2022-10-22T06:17:11;7.90;;;2.10;;
2099;SDS011;1055;48.854;9.302;2022-10-22T06:19:37;7.77;;;2.10;;
2099;SDS011;1055;48.854;9.302;2022-10-22T06:22:03;5.50;;;1.50;;
2099;SDS011;1055;48.854;9.302;2022-10-22T06:24:29;8.70;;;2.43;;
2099;SDS011;1055;48.854;9.302;2022-10-22T06:26:55;6.40;;;1.40;;
2099;SDS011;1055;48.854;9.302;2022-10-22T06:29:20;5.03;;;1.43;;
2099;SDS011;1055;48.854;9.302;2022-10-22T06:31:46;7.17;;;1.37;;
2099;SDS011;1055;48.854;9.302;2022-10-22T06:34:13;7.27;;;1.40;;
2099;SDS011;1055;48.854;9.302;2022-10-22T06:36:39;5.00;;;1.20;;
2099;SDS011;1055;48.854;9.302;2022-10-22T06:39:09;4.63;;;1.40;;
2099;SDS011;1055;48.854;9.302;2022-10-22T06:41:36;4.50;;;1.23;;
2099;SDS011;1055;48.854;9.302;2022-10-22T06:44:01;6.50;;;1.10;;
2099;SDS011;1055;48.854;9.302;2022-10-22T06:46:27;5.40;;;1.60;;
2099;SDS011;1055;48.854;9.302;2022-10-22T06:48:55;8.10;;;1.97;;
2099;SDS011;1055;48.854;9.302;2022-10-22T06:51:25;5.30;;;1.37;;
2099;SDS011;1055;48.854;9.302;2022-10-22T06:53:52;7.77;;;2.00;;
2099;SDS011;1055;48.854;9.302;2022-10-22T06:56:19;8.87;;;2.47;;
2099;SDS011;1055;48.854;9.302;2022-10-22T06:58:48;14.10;;;3.67;;
2099;SDS011;1055;48.854;9.302;2022-10-22T07:01:15;8.13;;;2.50;;
2099;SDS011;1055;48.854;9.302;2022-10-22T07:03:41;6.60;;;3.30;;
2099;SDS011;1055;48.854;9.302;2022-10-22T07:06:08;7.43;;;3.37;;
2099;SDS011;1055;48.854;9.302;2022-10-22T07:08:35;11.47;;;7.00;;
2099;SDS011;1055;48.854;9.302;2022-10-22T07:11:05;10.30;;;6.10;;
2099;SDS011;1055;48.854;9.302;2022-10-22T07:13:32;9.97;;;5.87;;
2099;SDS011;1055;48.854;9.302;2022-10-22T07:15:58;12.47;;;9.87;;
2099;SDS011;1055;48.854;9.302;2022-10-22T07:18:24;20.60;;;17.43;;
2099;SDS011;1055;48.854;9.302;2022-10-22T07:20:49;7.17;;;3.67;;
2099;SDS011;1055;48.854;9.302;2022-10-22T07:23:15;6.03;;;2.10;;
2099;SDS011;1055;48.854;9.302;2022-10-22T07:25:41;7.60;;;4.00;;
2099;SDS011;1055;48.854;9.302;2022-10-22T07:28:07;5.60;;;1.90;;
2099;SDS011;1055;48.854;9.302;2022-10-22T07:30:33;6.03;;;1.90;;
2099;SDS011;1055;48.854;9.302;2022-10-22T07:33:00;9.53;;;2.00;;
2099;SDS011;1055;48.854;9.302;2022-10-22T07:35:26;4.97;;;1.43;;
2099;SDS011;1055;48.854;9.302;2022-10-22T07:37:51;7.07;;;1.47;;
2099;SDS011;1055;48.854;9.302;2022-10-22T07:40:17;7.10;;;1.53;;
2099;SDS011;1055;48.854;9.302;2022-10-22T07:42:43;6.50;;;1.50;;
2099;SDS011;1055;48.854;9.302;2022-10-22T07:45:08;5.47;;;1.60;;
2099;SDS011;1055;48.854;9.302;2022-10-22T07:47:34;6.57;;;1.70;;
2099;SDS011;1055;48.854;9.302;2022-10-22T07:50:00;4.57;;;1.17;;
2099;SDS011;1055;48.854;9.302;2022-10-22T07:52:26;6.50;;;1.10;;
2099;SDS011;1055;48.854;9.302;2022-10-22T07:54:51;8.97;;;1.60;;
2099;SDS011;1055;48.854;9.302;2022-10-22T07:57:17;5.37;;;1.40;;
2099;SDS011;1055;48.854;9.302;2022-10-22T07:59:42;5.10;;;1.20;;
2099;SDS011;1055;48.854;9.302;2022-10-22T08:02:08;6.30;;;1.47;;
2099;SDS011;1055;48.854;9.302;2022-10-22T08:04:36;6.20;;;1.43;;
2099;SDS011;1055;48.854;9.302;2022-10-22T08:07:02;5.83;;;1.53;;
2099;SDS011;1055;48.854;9.302;2022-10-22T08:09:27;7.13;;;1.43;;
2099;SDS011;1055;48.854;9.302;2022-10-22T08:11:53;5.37;;;1.33;;
2099;SDS011;1055;48.854;9.302;2022-10-22T08:14:19;5.23;;;1.10;;
2099;SDS011;1055;48.854;9.302;2022-10-22T08:16:44;5.97;;;1.40;;
2099;SDS011;1055;48.854;9.302;2022-10-22T08:19:10;5.53;;;1.20;;
2099;SDS011;1055;48.854;9.302;2022-10-22T08:21:37;5.67;;;1.20;;
2099;SDS011;1055;48.854;9.302;2022-10-22T08:24:04;6.90;;;2.20;;
2099;SDS011;1055;48.854;9.302;2022-10-22T08:26:30;4.70;;;1.20;;
2099;SDS011;1055;48.854;9.302;2022-10-22T08:28:56;7.33;;;1.97;;
2099;SDS011;1055;48.854;9.302;2022-10-22T08:31:22;5.17;;;1.50;;
2099;SDS011;1055;48.854;9.302;2022-10-22T08:33:48;4.40;;;1.03;;
2099;SDS011;1055;48.854;9.302;2022-10-22T08:36:14;6.70;;;2.50;;
2099;SDS011;1055;48.854;9.302;2022-10-22T08:38:39;5.43;;;2.33;;
2099;SDS011;1055;48.854;9.302;2022-10-22T08:41:07;6.07;;;1.30;;
2099;SDS011;1055;48.854;9.302;2022-10-22T08:49:15;4.87;;;1.40;;
2099;SDS011;1055;48.854;9.302;2022-10-22T08:51:45;13.47;;;1.93;;
2099;SDS011;1055;48.854;9.302;2022-10-22T08:56:49;5.00;;;1.53;;
2099;SDS011;1055;48.854;9.302;2022-10-22T08:59:31;5.17;;;1.50;;
2099;SDS011;1055;48.854;9.302;2022-10-22T09:02:02;6.37;;;1.30;;
2099;SDS011;1055;48.854;9.302;2022-10-22T09:04:44;6.20;;;1.40;;
2099;SDS011;1055;48.854;9.302;2022-10-22T09:07:14;6.87;;;1.97;;
2099;SDS011;1055;48.854;9.302;2022-10-22T09:09:41;5.03;;;1.50;;
2099;SDS011;1055;48.854;9.302;2022-10-22T09:12:13;6.43;;;1.50;;
2099;SDS011;1055;48.854;9.302;2022-10-22T09:14:41;5.80;;;1.27;;
2099;SDS011;1055;48.854;9.302;2022-10-22T09:25:30;4.50;;;1.00;;
2099;SDS011;1055;48.854;9.302;2022-10-22T09:27:59;4.90;;;1.20;;
2099;SDS011;1055;48.854;9.302;2022-10-22T09:30:25;4.93;;;1.30;;
2099;SDS011;1055;48.854;9.302;2022-10-22T09:32:54;5.03;;;0.97;;
2099;SDS011;1055;48.854;9.302;2022-10-22T09:35:32;4.60;;;1.10;;
2099;SDS011;1055;48.854;9.302;2022-10-22T09:38:05;6.20;;;1.10;;
2099;SDS011;1055;48.854;9.302;2022-10-22T09:40:40;6.57;;;1.33;;
2099;SDS011;1055;48.854;9.302;2022-10-22T09:43:10;4.50;;;1.20;;
2099;SDS011;1055;48.854;9.302;2022-10-22T09:45:38;5.33;;;1.27;;
2099;SDS011;1055;48.854;9.302;2022-10-22T09:48:14;5.47;;;1.33;;
2099;SDS011;1055;48.854;9.302;2022-10-22T09:50:58;5.23;;;1.40;;
2099;SDS011;1055;48.854;9.302;2022-10-22T09:53:42;5.20;;;1.30;;
2099;SDS011;1055;48.854;9.302;2022-10-22T09:59:11;6.97;;;1.17;;
2099;SDS011;1055;48.854;9.302;2022-10-22T10:01:42;4.70;;;1.20;;
2099;SDS011;1055;48.854;9.302;2022-10-22T10:04:12;11.83;;;1.50;;
2099;SDS011;1055;48.854;9.302;2022-10-22T10:06:40;5.70;;;1.23;;
2099;SDS011;1055;48.854;9.302;2022-10-22T10:09:17;6.80;;;1.20;;
2099;SDS011;1055;48.854;9.302;2022-10-22T10:17:09;4.80;;;1.20;;
2099;SDS011;1055;48.854;9.302;2022-10-22T10:19:58;4.73;;;1.20;;
2099;SDS011;1055;48.854;9.302;2022-10-22T10:22:43;4.70;;;1.40;;
2099;SDS011;1055;48.854;9.302;2022-10-22T10:30:45;5.10;;;1.70;;
2099;SDS011;1055;48.854;9.302;2022-10-22T10:33:46;6.77;;;1.90;;
2099;SDS011;1055;48.854;9.302;2022-10-22T10:36:49;4.90;;;1.40;;
2099;SDS011;1055;48.854;9.302;2022-10-22T10:45:09;4.80;;;0.90;;
2099;SDS011;1055;48.854;9.302;2022-10-22T11:05:13;5.27;;;1.20;;
2099;SDS011;1055;48.854;9.302;2022-10-22T11:08:00;4.97;;;1.10;;
2099;SDS011;1055;48.854;9.302;2022-10-22T11:13:11;5.80;;;1.13;;
2099;SDS011;1055;48.854;9.302;2022-10-22T11:15:51;4.40;;;1.07;;
2099;SDS011;1055;48.854;9.302;2022-10-22T11:18:38;6.23;;;1.07;;
2099;SDS011;1055;48.854;9.302;2022-10-22T11:23:52;4.60;;;1.13;;
2099;SDS011;1055;48.854;9.302;2022-10-22T11:26:39;4.80;;;1.10;;
2099;SDS011;1055;48.854;9.302;2022-10-22T11:29:08;4.40;;;0.90;;
2099;SDS011;1055;48.854;9.302;2022-10-22T11:31:40;4.40;;;1.00;;
2099;SDS011;1055;48.854;9.302;2022-10-22T11:34:13;4.90;;;1.07;;
2099;SDS011;1055;48.854;9.302;2022-10-22T11:36:43;5.33;;;1.13;;
2099;SDS011;1055;48.854;9.302;2022-10-22T11:39:31;6.40;;;1.10;;
2099;SDS011;1055;48.854;9.302;2022-10-22T11:42:02;6.73;;;1.20;;
2099;SDS011;1055;48.854;9.302;2022-10-22T11:44:47;6.03;;;1.03;;
2099;SDS011;1055;48.854;9.302;2022-10-22T11:47:31;6.23;;;1.30;;
2099;SDS011;1055;48.854;9.302;2022-10-22T11:50:22;7.23;;;2.47;;
2099;SDS011;1055;48.854;9.302;2022-10-22T11:53:04;4.60;;;1.20;;
2099;SDS011;1055;48.854;9.302;2022-10-22T11:58:47;5.47;;;1.40;;
2099;SDS011;1055;48.854;9.302;2022-10-22T12:21:42;5.33;;;1.50;;
2099;SDS011;1055;48.854;9.302;2022-10-22T12:24:13;6.47;;;1.50;;
2099;SDS011;1055;48.854;9.302;2022-10-22T12:26:41;4.80;;;1.30;;
2099;SDS011;1055;48.854;9.302;2022-10-22T12:29:11;6.37;;;1.50;;
2099;SDS011;1055;48.854;9.302;2022-10-22T12:31:39;6.00;;;1.90;;
2099;SDS011;1055;48.854;9.302;2022-10-22T12:34:06;5.23;;;1.60;;
2099;SDS011;1055;48.854;9.302;2022-10-22T12:36:39;5.20;;;1.70;;
2099;SDS011;1055;48.854;9.302;2022-10-22T12:39:13;4.33;;;1.00;;
2099;SDS011;1055;48.854;9.302;2022-10-22T12:41:43;4.50;;;1.07;;
2099;SDS011;1055;48.854;9.302;2022-10-22T12:44:10;5.03;;;1.37;;
2099;SDS011;1055;48.854;9.302;2022-10-22T12:46:38;4.33;;;1.20;;
2099;SDS011;1055;48.854;9.302;2022-10-22T12:49:05;4.80;;;1.13;;
2099;SDS011;1055;48.854;9.302;2022-10-22T12:51:37;6.13;;;1.30;;
2099;SDS011;1055;48.854;9.302;2022-10-22T12:54:06;5.43;;;1.20;;
2099;SDS011;1055;48.854;9.302;2022-10-22T12:56:34;4.60;;;1.20;;
2099;SDS011;1055;48.854;9.302;2022-10-22T12:59:02;6.40;;;1.10;;
2099;SDS011;1055;48.854;9.302;2022-10-22T13:01:35;5.80;;;1.07;;
2099;SDS011;1055;48.854;9.302;2022-10-22T13:04:17;4.73;;;1.00;;
2099;SDS011;1055;48.854;9.302;2022-10-22T13:06:44;6.30;;;1.30;;
2099;SDS011;1055;48.854;9.302;2022-10-22T13:12:02;5.07;;;0.90;;
2099;SDS011;1055;48.854;9.302;2022-10-22T13:14:31;6.87;;;0.93;;
2099;SDS011;1055;48.854;9.302;2022-10-22T13:17:17;4.47;;;0.83;;
2099;SDS011;1055;48.854;9.302;2022-10-22T13:19:58;4.93;;;1.10;;
2099;SDS011;1055;48.854;9.302;2022-10-22T13:24:51;5.30;;;1.13;;
2099;SDS011;1055;48.854;9.302;2022-10-22T13:27:18;4.97;;;1.03;;
2099;SDS011;1055;48.854;9.302;2022-10-22T13:29:44;6.77;;;1.30;;
2099;SDS011;1055;48.854;9.302;2022-10-22T13:32:20;4.73;;;0.93;;
2099;SDS011;1055;48.854;9.302;2022-10-22T13:34:52;7.07;;;1.30;;
2099;SDS011;1055;48.854;9.302;2022-10-22T13:37:18;5.23;;;1.30;;
2099;SDS011;1055;48.854;9.302;2022-10-22T13:39:44;5.33;;;1.17;;
2099;SDS011;1055;48.854;9.302;2022-10-22T13:42:10;4.53;;;1.13;;
2099;SDS011;1055;48.854;9.302;2022-10-22T13:44:36;4.40;;;1.20;;
2099;SDS011;1055;48.854;9.302;2022-10-22T13:47:02;4.20;;;1.00;;
2099;SDS011;1055;48.854;9.302;2022-10-22T13:49:34;5.70;;;1.20;;
2099;SDS011;1055;48.854;9.302;2022-10-22T13:52:00;5.43;;;1.30;;
2099;SDS011;1055;48.854;9.302;2022-10-22T13:54:26;5.97;;;1.40;;
2099;SDS011;1055;48.854;9.302;2022-10-22T13:56:51;5.33;;;1.20;;
2099;SDS011;1055;48.854;9.302;2022-10-22T13:59:17;6.30;;;1.50;;
2099;SDS011;1055;48.854;9.302;2022-10-22T14:01:43;5.40;;;1.53;;
2099;SDS011;1055;48.854;9.302;2022-10-22T14:04:09;6.97;;;1.30;;
2099;SDS011;1055;48.854;9.302;2022-10-22T14:06:37;4.70;;;1.20;;
2099;SDS011;1055;48.854;9.302;2022-10-22T14:09:04;5.10;;;1.40;;
2099;SDS011;1055;48.854;9.302;2022-10-22T14:11:34;4.90;;;1.47;;
2099;SDS011;1055;48.854;9.302;2022-10-22T14:14:00;5.17;;;1.10;;
2099;SDS011;1055;48.854;9.302;2022-10-22T14:16:29;5.07;;;1.10;;
2099;SDS011;1055;48.854;9.302;2022-10-22T14:18:57;4.57;;;1.10;;
2099;SDS011;1055;48.854;9.302;2022-10-22T14:21:23;4.47;;;1.10;;
2099;SDS011;1055;48.854;9.302;2022-10-22T14:23:49;5.47;;;1.20;;
2099;SDS011;1055;48.854;9.302;2022-10-22T14:26:26;4.40;;;1.07;;
2099;SDS011;1055;48.854;9.302;2022-10-22T14:28:56;7.70;;;1.57;;
2099;SDS011;1055;48.854;9.302;2022-10-22T14:31:22;5.20;;;1.33;;
2099;SDS011;1055;48.854;9.302;2022-10-22T14:33:48;4.63;;;1.50;;
2099;SDS011;1055;48.854;9.302;2022-10-22T14:36:15;5.43;;;1.27;;
2099;SDS011;1055;48.854;9.302;2022-10-22T14:38:42;7.03;;;1.30;;
2099;SDS011;1055;48.854;9.302;2022-10-22T14:41:18;5.37;;;1.80;;
2099;SDS011;1055;48.854;9.302;2022-10-22T14:43:45;5.13;;;1.30;;
2099;SDS011;1055;48.854;9.302;2022-10-22T14:46:12;5.70;;;1.40;;
2099;SDS011;1055;48.854;9.302;2022-10-22T14:48:39;4.87;;;1.43;;
2099;SDS011;1055;48.854;9.302;2022-10-22T14:51:06;6.20;;;1.60;;
2099;SDS011;1055;48.854;9.302;2022-10-22T14:53:35;4.80;;;1.40;;
2099;SDS011;1055;48.854;9.302;2022-10-22T14:56:00;6.97;;;1.33;;
2099;SDS011;1055;48.854;9.302;2022-10-22T14:58:26;4.80;;;1.60;;
2099;SDS011;1055;48.854;9.302;2022-10-22T15:00:52;4.80;;;1.33;;
2099;SDS011;1055;48.854;9.302;2022-10-22T15:03:17;7.57;;;1.50;;
2099;SDS011;1055;48.854;9.302;2022-10-22T15:05:43;4.67;;;1.20;;
2099;SDS011;1055;48.854;9.302;2022-10-22T15:08:09;5.60;;;1.50;;
2099;SDS011;1055;48.854;9.302;2022-10-22T15:10:35;4.70;;;1.23;;
2099;SDS011;1055;48.854;9.302;2022-10-22T15:13:01;6.57;;;1.40;;
2099;SDS011;1055;48.854;9.302;2022-10-22T15:15:26;5.90;;;1.63;;
2099;SDS011;1055;48.854;9.302;2022-10-22T15:17:52;5.13;;;1.53;;
2099;SDS011;1055;48.854;9.302;2022-10-22T15:20:18;5.73;;;1.60;;
2099;SDS011;1055;48.854;9.302;2022-10-22T15:22:43;7.00;;;1.50;;
2099;SDS011;1055;48.854;9.302;2022-10-22T15:25:09;6.30;;;1.40;;
2099;SDS011;1055;48.854;9.302;2022-10-22T15:27:36;6.20;;;1.40;;
2099;SDS011;1055;48.854;9.302;2022-10-22T15:30:02;5.67;;;1.67;;
2099;SDS011;1055;48.854;9.302;2022-10-22T15:32:29;5.10;;;1.43;;
2099;SDS011;1055;48.854;9.302;2022-10-22T15:34:56;6.73;;;1.90;;
2099;SDS011;1055;48.854;9.302;2022-10-22T15:37:21;6.90;;;2.10;;
2099;SDS011;1055;48.854;9.302;2022-10-22T15:39:47;7.83;;;2.57;;
2099;SDS011;1055;48.854;9.302;2022-10-22T15:42:13;6.80;;;2.70;;
2099;SDS011;1055;48.854;9.302;2022-10-22T15:44:39;5.80;;;2.20;;
2099;SDS011;1055;48.854;9.302;2022-10-22T15:47:06;7.23;;;2.70;;
2099;SDS011;1055;48.854;9.302;2022-10-22T15:49:32;6.47;;;2.00;;
2099;SDS011;1055;48.854;9.302;2022-10-22T15:52:00;5.43;;;1.77;;
2099;SDS011;1055;48.854;9.302;2022-10-22T15:54:27;5.30;;;2.10;;
2099;SDS011;1055;48.854;9.302;2022-10-22T15:56:55;7.20;;;2.10;;
2099;SDS011;1055;48.854;9.302;2022-10-22T15:59:33;7.27;;;2.10;;
2099;SDS011;1055;48.854;9.302;2022-10-22T16:01:59;6.40;;;2.47;;
2099;SDS011;1055;48.854;9.302;2022-10-22T16:04:25;26.33;;;7.00;;
2099;SDS011;1055;48.854;9.302;2022-10-22T16:06:51;11.00;;;4.03;;
2099;SDS011;1055;48.854;9.302;2022-10-22T16:09:18;7.50;;;3.50;;
2099;SDS011;1055;48.854;9.302;2022-10-22T16:11:45;9.30;;;4.90;;
2099;SDS011;1055;48.854;9.302;2022-10-22T16:14:11;8.70;;;4.90;;
2099;SDS011;1055;48.854;9.302;2022-10-22T16:16:41;10.23;;;4.80;;
2099;SDS011;1055;48.854;9.302;2022-10-22T16:19:09;9.30;;;4.83;;
2099;SDS011;1055;48.854;9.302;2022-10-22T16:21:36;8.80;;;4.70;;
2099;SDS011;1055;48.854;9.302;2022-10-22T16:24:02;11.40;;;4.87;;
2099;SDS011;1055;48.854;9.302;2022-10-22T16:26:28;9.20;;;4.30;;
2099;SDS011;1055;48.854;9.302;2022-10-22T16:28:53;8.30;;;3.70;;
2099;SDS011;1055;48.854;9.302;2022-10-22T16:31:19;9.70;;;3.70;;
2099;SDS011;1055;48.854;9.302;2022-10-22T16:33:45;8.33;;;3.70;;
2099;SDS011;1055;48.854;9.302;2022-10-22T16:36:11;9.37;;;3.60;;
2099;SDS011;1055;48.854;9.302;2022-10-22T16:38:39;8.03;;;3.73;;
2099;SDS011;1055;48.854;9.302;2022-10-22T16:41:18;8.07;;;3.10;;
2099;SDS011;1055;48.854;9.302;2022-10-22T16:43:46;9.43;;;3.50;;
2099;SDS011;1055;48.854;9.302;2022-10-22T16:46:14;10.77;;;2.70;;
2099;SDS011;1055;48.854;9.302;2022-10-22T16:48:47;7.57;;;2.70;;
2099;SDS011;1055;48.854;9.302;2022-10-22T16:51:14;8.70;;;3.20;;
2099;SDS011;1055;48.854;9.302;2022-10-22T16:53:42;7.13;;;3.10;;
2099;SDS011;1055;48.854;9.302;2022-10-22T16:56:11;9.53;;;3.17;;
2099;SDS011;1055;48.854;9.302;2022-10-22T16:58:42;6.80;;;2.97;;
2099;SDS011;1055;48.854;9.302;2022-10-22T17:01:12;9.77;;;3.03;;
2099;SDS011;1055;48.854;9.302;2022-10-22T17:03:38;10.60;;;3.20;;
2099;SDS011;1055;48.854;9.302;2022-10-22T17:06:04;8.13;;;2.93;;
2099;SDS011;1055;48.854;9.302;2022-10-22T17:08:34;10.07;;;2.77;;
2099;SDS011;1055;48.854;9.302;2022-10-22T17:11:11;9.73;;;2.97;;
2099;SDS011;1055;48.854;9.302;2022-10-22T17:13:40;10.53;;;4.97;;
2099;SDS011;1055;48.854;9.302;2022-10-22T17:16:07;9.03;;;3.57;;
2099;SDS011;1055;48.854;9.302;2022-10-22T17:18:35;9.70;;;2.87;;
2099;SDS011;1055;48.854;9.302;2022-10-22T17:21:05;9.70;;;3.23;;